createdAt,value
2023-01-08T00:01:06.741Z,-0.26
2023-01-08T00:03:34.021Z,0.07
2023-01-08T00:06:03.094Z,0.05
2023-01-08T00:08:31.360Z,0.09
2023-01-08T00:10:58.486Z,0.12
2023-01-08T00:13:25.544Z,0.20
2023-01-08T00:15:52.349Z,-0.15
2023-01-08T00:18:19.264Z,0.01
2023-01-08T00:20:46.574Z,-0.01
2023-01-08T00:23:17.649Z,-0.02
2023-01-08T00:25:44.455Z,0.04
2023-01-08T00:28:11.574Z,0.07
2023-01-08T00:30:38.437Z,0.11
2023-01-08T00:33:05.068Z,0.08
2023-01-08T00:35:31.866Z,-0.10
2023-01-08T00:37:58.563Z,0.00
2023-01-08T00:40:25.159Z,-0.17
2023-01-08T00:42:51.813Z,0.08
2023-01-08T00:45:18.443Z,0.08
2023-01-08T00:47:45.234Z,-0.18
2023-01-08T00:50:12.039Z,-0.24
2023-01-08T00:52:39.170Z,-0.37
2023-01-08T00:55:08.857Z,-0.48
2023-01-08T00:57:37.351Z,-0.32
2023-01-08T01:00:09.218Z,-0.21
2023-01-08T01:02:36.771Z,-0.39
2023-01-08T01:05:04.586Z,-0.14
2023-01-08T01:07:31.691Z,-0.20
2023-01-08T01:09:58.518Z,-0.10
2023-01-08T01:12:25.210Z,-0.34
2023-01-08T01:14:51.908Z,-0.53
2023-01-08T01:17:18.574Z,-0.33
2023-01-08T01:19:48.157Z,-0.19
2023-01-08T01:22:14.913Z,-0.20
2023-01-08T01:24:41.544Z,-0.02
2023-01-08T01:27:08.252Z,-0.01
2023-01-08T01:29:34.911Z,-0.11
2023-01-08T01:32:01.599Z,-0.01
2023-01-08T01:34:28.313Z,-0.37
2023-01-08T01:36:55.023Z,-0.43
2023-01-08T01:39:21.844Z,-0.35
2023-01-08T01:41:48.638Z,-0.26
2023-01-08T01:44:34.277Z,-0.15
2023-01-08T01:47:05.822Z,-0.18
2023-01-08T01:49:33.619Z,-0.14
2023-01-08T01:52:03.095Z,-0.36
2023-01-08T01:54:31.639Z,-0.28
2023-01-08T01:57:00.373Z,-0.46
2023-01-08T01:59:27.534Z,-0.53
2023-01-08T02:01:56.254Z,-0.38
2023-01-08T02:04:22.993Z,-0.47
2023-01-08T02:06:55.684Z,-0.35
2023-01-08T02:09:35.647Z,-0.34
2023-01-08T02:12:18.826Z,-0.39
2023-01-08T02:14:54.961Z,-0.43
2023-01-08T02:17:33.037Z,-0.44
2023-01-08T02:20:11.887Z,-0.46
2023-01-08T02:22:54.376Z,-0.40
2023-01-08T02:25:54.466Z,-0.65
2023-01-08T02:28:22.429Z,-0.39
2023-01-08T02:30:49.824Z,-0.56
2023-01-08T02:33:16.593Z,-0.34
2023-01-08T02:35:54.279Z,-0.38
2023-01-08T02:38:22.567Z,-0.54
2023-01-08T02:41:09.549Z,-0.63
2023-01-08T02:43:42.772Z,-0.36
2023-01-08T02:46:14.507Z,-0.41
2023-01-08T02:48:57.136Z,-0.39
2023-01-08T02:51:35.553Z,-0.65
2023-01-08T02:54:09.333Z,-0.76
2023-01-08T02:56:41.675Z,-0.54
2023-01-08T02:59:11.073Z,-0.57
2023-01-08T03:01:39.125Z,-0.49
2023-01-08T03:04:19.694Z,-0.49
2023-01-08T03:06:46.625Z,-0.45
2023-01-08T03:09:14.535Z,-0.43
2023-01-08T03:11:49.169Z,-0.27
2023-01-08T03:14:23.004Z,-0.26
2023-01-08T03:16:54.095Z,-0.42
2023-01-08T03:19:41.624Z,-0.41
2023-01-08T03:22:13.380Z,-0.43
2023-01-08T03:24:42.144Z,-0.42
2023-01-08T03:27:16.592Z,-0.46
2023-01-08T03:29:44.855Z,-0.37
2023-01-08T03:32:15.346Z,-0.51
2023-01-08T03:34:44.867Z,-0.52
2023-01-08T03:37:14.391Z,-0.68
2023-01-08T03:39:55.820Z,-0.88
2023-01-08T03:42:23.355Z,-0.70
2023-01-08T03:44:50.001Z,-0.90
2023-01-08T03:47:17.015Z,-0.80
2023-01-08T03:49:45.281Z,-0.64
2023-01-08T03:52:22.271Z,-0.52
2023-01-08T03:54:48.945Z,-0.70
2023-01-08T03:57:15.556Z,-0.71
2023-01-08T03:59:42.155Z,-0.61
2023-01-08T04:02:09.181Z,-0.48
2023-01-08T04:04:36.072Z,-0.60
2023-01-08T04:07:02.884Z,-0.75
2023-01-08T04:09:29.440Z,-0.74
2023-01-08T04:11:56.074Z,-0.70
2023-01-08T04:14:22.707Z,-0.82
2023-01-08T04:16:49.419Z,-0.65
2023-01-08T04:19:16.125Z,-0.82
2023-01-08T04:21:42.789Z,-0.64
2023-01-08T04:24:09.529Z,-0.60
2023-01-08T04:26:36.163Z,-0.67
2023-01-08T04:29:04.208Z,-0.60
2023-01-08T04:31:31.810Z,-0.79
2023-01-08T04:33:58.473Z,-0.53
2023-01-08T04:36:25.116Z,-0.48
2023-01-08T04:38:51.771Z,-0.60
2023-01-08T04:41:18.562Z,-0.68
2023-01-08T04:43:45.368Z,-0.55
2023-01-08T04:46:12.114Z,-0.79
2023-01-08T04:48:38.873Z,-0.51
2023-01-08T04:51:05.821Z,-0.50
2023-01-08T04:53:36.349Z,-0.58
2023-01-08T04:56:07.795Z,-0.54
2023-01-08T04:58:35.481Z,-0.76
2023-01-08T05:01:09.870Z,-0.52
2023-01-08T05:03:36.569Z,-0.49
2023-01-08T05:06:03.269Z,-0.24
2023-01-08T05:08:29.894Z,-0.38
2023-01-08T05:10:59.459Z,-0.22
2023-01-08T05:13:26.088Z,-0.32
2023-01-08T05:15:52.732Z,-0.59
2023-01-08T05:18:19.643Z,-0.39
2023-01-08T05:20:46.217Z,-0.40
2023-01-08T05:23:12.885Z,-0.58
2023-01-08T05:25:39.452Z,-0.57
2023-01-08T05:28:06.001Z,-0.51
2023-01-08T05:30:32.615Z,-0.48
2023-01-08T05:32:59.201Z,-0.31
2023-01-08T05:35:25.832Z,-0.25
2023-01-08T05:37:52.396Z,-0.58
2023-01-08T05:40:19.030Z,-0.50
2023-01-08T05:42:45.687Z,-0.56
2023-01-08T05:45:12.343Z,-0.48
2023-01-08T05:47:38.955Z,-0.61
2023-01-08T05:50:06.023Z,-0.31
2023-01-08T05:52:32.668Z,-0.60
2023-01-08T05:55:00.185Z,-0.34
2023-01-08T05:57:26.945Z,-0.41
2023-01-08T05:59:53.529Z,-0.36
2023-01-08T06:02:23.033Z,-0.46
2023-01-08T06:04:49.748Z,-0.54
2023-01-08T06:07:16.372Z,-0.55
2023-01-08T06:09:42.987Z,-0.50
2023-01-08T06:12:09.612Z,-0.40
2023-01-08T06:14:36.148Z,-0.32
2023-01-08T06:17:02.715Z,-0.51
2023-01-08T06:19:29.296Z,-0.53
2023-01-08T06:21:56.731Z,-0.66
2023-01-08T06:24:23.456Z,-0.23
2023-01-08T06:26:50.121Z,-0.43
2023-01-08T06:29:16.687Z,-0.23
2023-01-08T06:31:43.357Z,-0.43
2023-01-08T06:34:11.443Z,-0.37
2023-01-08T06:36:38.116Z,-0.19
2023-01-08T06:39:08.487Z,-0.64
2023-01-08T06:41:35.120Z,-0.44
2023-01-08T06:44:01.784Z,-0.38
2023-01-08T06:46:28.484Z,-0.48
2023-01-08T06:48:55.150Z,-0.71
2023-01-08T06:51:21.769Z,-0.64
2023-01-08T06:53:48.959Z,-0.54
2023-01-08T06:56:15.540Z,-0.53
2023-01-08T06:58:42.180Z,-0.53
2023-01-08T07:01:14.206Z,-0.36
2023-01-08T07:03:40.931Z,-0.29
2023-01-08T07:06:08.037Z,-0.47
2023-01-08T07:08:34.632Z,-0.37
2023-01-08T07:11:04.560Z,-0.15
2023-01-08T07:13:31.180Z,-0.11
2023-01-08T07:15:57.855Z,-0.66
2023-01-08T07:18:24.529Z,-0.33
2023-01-08T07:20:51.507Z,-0.14
2023-01-08T07:23:18.117Z,-0.12
2023-01-08T07:25:44.807Z,-0.25
2023-01-08T07:28:12.858Z,0.02
2023-01-08T07:30:39.538Z,-0.15
2023-01-08T07:33:06.149Z,-0.07
2023-01-08T07:35:32.746Z,0.06
2023-01-08T07:37:59.474Z,0.20
2023-01-08T07:40:26.086Z,-0.12
2023-01-08T07:43:03.858Z,0.11
2023-01-08T07:45:32.070Z,-0.14
2023-01-08T07:47:59.310Z,0.05
2023-01-08T07:50:26.830Z,0.19
2023-01-08T07:52:53.528Z,0.06
2023-01-08T07:55:20.131Z,0.24
2023-01-08T07:57:46.700Z,0.17
2023-01-08T08:00:14.798Z,0.14
2023-01-08T08:02:41.511Z,0.19
2023-01-08T08:05:08.658Z,0.17
2023-01-08T08:07:36.075Z,0.13
2023-01-08T08:10:04.332Z,0.27
2023-01-08T08:12:31.071Z,0.16
2023-01-08T08:14:57.695Z,0.36
2023-01-08T08:17:24.536Z,0.37
2023-01-08T08:19:51.082Z,0.61
2023-01-08T08:22:17.696Z,0.57
2023-01-08T08:24:44.289Z,0.71
2023-01-08T08:27:10.869Z,0.57
2023-01-08T08:29:37.504Z,0.77
2023-01-08T08:32:04.315Z,0.66
2023-01-08T08:34:30.925Z,0.95
2023-01-08T08:36:57.537Z,0.84
2023-01-08T08:39:24.131Z,0.91
2023-01-08T08:41:50.779Z,1.02
2023-01-08T08:44:17.396Z,0.80
2023-01-08T08:46:44.123Z,1.14
2023-01-08T08:49:10.834Z,1.22
2023-01-08T08:51:37.477Z,1.35
2023-01-08T08:54:04.102Z,1.38
2023-01-08T08:56:30.843Z,1.42
2023-01-08T08:58:58.453Z,1.37
2023-01-08T09:01:25.369Z,1.33
2023-01-08T09:03:52.045Z,1.28
2023-01-08T09:06:18.688Z,1.19
2023-01-08T09:08:45.338Z,1.39
2023-01-08T09:11:14.263Z,1.16
2023-01-08T09:13:41.081Z,1.22
2023-01-08T09:16:07.997Z,1.43
2023-01-08T09:18:34.637Z,1.30
2023-01-08T09:21:05.828Z,1.46
2023-01-08T09:23:33.105Z,1.48
2023-01-08T09:26:03.821Z,1.47
2023-01-08T09:28:30.902Z,1.60
2023-01-08T09:31:02.097Z,1.60
2023-01-08T09:33:29.250Z,1.46
2023-01-08T09:35:55.823Z,1.64
2023-01-08T09:38:22.497Z,1.76
2023-01-08T09:40:56.577Z,1.58
2023-01-08T09:43:26.637Z,2.00
2023-01-08T09:45:57.942Z,1.91
2023-01-08T09:48:28.758Z,1.87
2023-01-08T09:50:56.359Z,2.15
2023-01-08T09:53:23.445Z,1.93
2023-01-08T09:56:09.836Z,1.81
2023-01-08T09:58:42.233Z,1.86
2023-01-08T10:01:13.722Z,1.96
2023-01-08T10:03:45.107Z,2.06
2023-01-08T10:06:13.516Z,2.17
2023-01-08T10:08:40.215Z,2.05
2023-01-08T10:11:09.095Z,2.28
2023-01-08T10:13:39.501Z,2.32
2023-01-08T10:16:08.298Z,2.50
2023-01-08T10:18:35.294Z,2.61
2023-01-08T10:21:01.934Z,2.57
2023-01-08T10:23:28.634Z,2.74
2023-01-08T10:25:58.290Z,2.72
2023-01-08T10:28:30.248Z,2.71
2023-01-08T10:31:05.684Z,2.88
2023-01-08T10:33:42.368Z,2.86
2023-01-08T10:36:11.995Z,2.99
2023-01-08T10:38:54.189Z,2.85
2023-01-08T10:41:22.030Z,2.75
2023-01-08T10:43:57.440Z,3.06
2023-01-08T10:46:31.140Z,2.96
2023-01-08T10:49:00.891Z,2.89
2023-01-08T10:51:31.141Z,3.13
2023-01-08T10:54:26.423Z,3.31
2023-01-08T10:56:53.106Z,3.32
2023-01-08T10:59:20.275Z,3.35
2023-01-08T11:01:48.622Z,3.31
2023-01-08T11:04:36.484Z,3.42
2023-01-08T11:07:07.272Z,3.52
2023-01-08T11:09:40.768Z,3.29
2023-01-08T11:12:41.012Z,3.38
2023-01-08T11:15:28.215Z,3.30
2023-01-08T11:17:54.936Z,3.18
2023-01-08T11:20:28.155Z,3.34
2023-01-08T11:23:23.889Z,3.30
2023-01-08T11:26:19.695Z,3.51
2023-01-08T11:29:20.559Z,3.69
2023-01-08T11:31:57.291Z,3.52
2023-01-08T11:34:48.697Z,3.53
2023-01-08T11:37:22.228Z,3.44
2023-01-08T11:39:49.925Z,3.45
2023-01-08T11:42:31.395Z,3.43
2023-01-08T11:45:31.228Z,3.55
2023-01-08T11:48:11.503Z,3.34
2023-01-08T11:51:16.621Z,3.37
2023-01-08T11:53:59.489Z,3.11
2023-01-08T11:56:56.406Z,3.44
2023-01-08T11:59:46.301Z,3.49
2023-01-08T12:02:19.028Z,3.51
2023-01-08T12:05:21.413Z,3.58
2023-01-08T12:07:53.872Z,3.64
2023-01-08T12:10:31.090Z,3.53
2023-01-08T12:13:16.360Z,3.59
2023-01-08T12:16:18.966Z,3.52
2023-01-08T12:19:13.681Z,3.55
2023-01-08T12:21:56.326Z,3.62
2023-01-08T12:24:54.239Z,3.68
2023-01-08T12:27:55.813Z,3.78
2023-01-08T12:30:48.122Z,3.69
2023-01-08T12:33:32.631Z,3.70
2023-01-08T12:36:02.036Z,3.86
2023-01-08T12:38:32.785Z,3.74
2023-01-08T12:41:04.953Z,3.96
2023-01-08T12:43:35.433Z,4.04
2023-01-08T12:46:03.436Z,3.93
2023-01-08T12:48:33.251Z,3.97
2023-01-08T12:51:07.774Z,4.04
2023-01-08T12:53:55.853Z,4.03
2023-01-08T12:56:56.135Z,4.03
2023-01-08T12:59:54.280Z,3.98
2023-01-08T13:02:51.921Z,3.94
2023-01-08T13:05:18.583Z,3.83
2023-01-08T13:07:48.299Z,3.81
2023-01-08T13:10:32.427Z,3.80
2023-01-08T13:13:01.888Z,3.75
2023-01-08T13:15:31.045Z,3.60
2023-01-08T13:18:05.623Z,3.71
2023-01-08T13:20:32.536Z,3.55
2023-01-08T13:23:05.444Z,3.56
2023-01-08T13:25:38.114Z,3.72
2023-01-08T13:28:29.622Z,3.69
2023-01-08T13:31:09.179Z,3.63
2023-01-08T13:33:35.758Z,3.89
2023-01-08T13:36:14.535Z,3.88
2023-01-08T13:38:41.558Z,3.74
2023-01-08T13:41:30.041Z,3.69
2023-01-08T13:44:16.302Z,3.90
2023-01-08T13:46:44.159Z,3.66
2023-01-08T13:49:28.945Z,3.97
2023-01-08T13:51:55.766Z,3.73
2023-01-08T13:54:29.009Z,3.94
2023-01-08T13:57:04.153Z,3.92
2023-01-08T13:59:41.947Z,3.86
2023-01-08T14:02:34.349Z,3.93
2023-01-08T14:05:12.197Z,3.87
2023-01-08T14:07:39.338Z,3.99
2023-01-08T14:10:09.322Z,3.98
2023-01-08T14:12:35.987Z,4.05
2023-01-08T14:15:04.520Z,3.78
2023-01-08T14:17:32.570Z,4.03
2023-01-08T14:19:59.606Z,4.10
2023-01-08T14:22:33.666Z,4.15
2023-01-08T14:25:04.202Z,3.90
2023-01-08T14:27:31.980Z,3.93
2023-01-08T14:29:58.927Z,3.89
2023-01-08T14:32:30.631Z,3.92
2023-01-08T14:35:03.494Z,3.80
2023-01-08T14:37:30.239Z,3.62
2023-01-08T14:39:56.805Z,3.78
2023-01-08T14:42:47.359Z,3.74
2023-01-08T14:45:24.719Z,3.26
2023-01-08T14:47:56.512Z,3.96
2023-01-08T14:50:33.633Z,4.02
2023-01-08T14:53:25.752Z,4.12
2023-01-08T14:55:55.112Z,4.16
2023-01-08T14:58:28.604Z,4.21
2023-01-08T15:00:59.410Z,4.20
2023-01-08T15:03:34.306Z,4.12
2023-01-08T15:06:05.397Z,4.07
2023-01-08T15:08:34.892Z,4.06
2023-01-08T15:11:06.289Z,3.99
2023-01-08T15:13:38.237Z,3.77
2023-01-08T15:16:11.911Z,3.92
2023-01-08T15:18:44.933Z,3.94
2023-01-08T15:21:17.400Z,3.86
2023-01-08T15:23:51.610Z,3.92
2023-01-08T15:26:18.582Z,4.09
2023-01-08T15:28:53.877Z,3.90
2023-01-08T15:31:28.609Z,3.83
2023-01-08T15:33:55.986Z,3.77
2023-01-08T15:36:22.799Z,3.82
2023-01-08T15:38:50.203Z,3.89
2023-01-08T15:41:40.601Z,3.92
2023-01-08T15:44:09.046Z,3.91
2023-01-08T15:46:36.304Z,3.73
2023-01-08T15:49:03.326Z,3.83
2023-01-08T15:51:33.195Z,3.98
2023-01-08T15:54:02.819Z,4.02
2023-01-08T15:56:29.977Z,3.91
2023-01-08T15:58:56.988Z,4.05
2023-01-08T16:01:24.171Z,4.06
2023-01-08T16:03:51.273Z,3.88
2023-01-08T16:06:20.964Z,3.83
2023-01-08T16:08:48.112Z,3.89
2023-01-08T16:11:16.681Z,3.72
2023-01-08T16:13:43.677Z,3.85
2023-01-08T16:16:16.005Z,3.70
2023-01-08T16:18:42.941Z,3.60
2023-01-08T16:21:10.693Z,3.56
2023-01-08T16:23:39.521Z,3.60
2023-01-08T16:26:11.648Z,3.38
2023-01-08T16:28:39.110Z,3.50
2023-01-08T16:31:07.301Z,3.53
2023-01-08T16:33:34.603Z,3.32
2023-01-08T16:36:04.011Z,3.40
2023-01-08T16:38:33.472Z,3.24
2023-01-08T16:41:00.719Z,3.40
2023-01-08T16:43:30.103Z,3.38
2023-01-08T16:45:57.403Z,3.37
2023-01-08T16:48:24.255Z,3.38
2023-01-08T16:50:51.168Z,3.12
2023-01-08T16:53:18.118Z,3.22
2023-01-08T16:55:44.956Z,3.31
2023-01-08T16:58:12.256Z,3.12
2023-01-08T17:00:42.250Z,2.95
2023-01-08T17:03:09.135Z,2.84
2023-01-08T17:05:36.910Z,2.93
2023-01-08T17:08:03.693Z,2.96
2023-01-08T17:10:30.427Z,2.82
2023-01-08T17:12:59.809Z,2.81
2023-01-08T17:15:26.654Z,2.92
2023-01-08T17:17:53.381Z,2.81
2023-01-08T17:20:20.326Z,2.84
2023-01-08T17:22:47.125Z,2.88
2023-01-08T17:25:14.193Z,2.83
2023-01-08T17:27:42.095Z,2.61
2023-01-08T17:30:13.867Z,2.75
2023-01-08T17:32:41.024Z,2.66
2023-01-08T17:35:08.285Z,2.38
2023-01-08T17:37:35.118Z,2.56
2023-01-08T17:40:02.376Z,2.45
2023-01-08T17:42:30.418Z,2.46
2023-01-08T17:45:00.286Z,2.45
2023-01-08T17:47:27.280Z,2.16
2023-01-08T17:49:57.520Z,2.38
2023-01-08T17:52:25.721Z,2.42
2023-01-08T17:54:52.886Z,2.19
2023-01-08T17:57:21.051Z,2.05
2023-01-08T17:59:48.408Z,2.16
2023-01-08T18:02:16.743Z,2.21
2023-01-08T18:04:45.581Z,2.14
2023-01-08T18:07:15.409Z,2.14
2023-01-08T18:09:42.010Z,1.80
2023-01-08T18:12:11.195Z,1.92
2023-01-08T18:14:39.081Z,2.07
2023-01-08T18:17:06.316Z,2.01
2023-01-08T18:19:33.215Z,1.96
2023-01-08T18:22:00.818Z,1.93
2023-01-08T18:24:27.695Z,1.70
2023-01-08T18:26:54.619Z,1.97
2023-01-08T18:29:21.317Z,1.98
2023-01-08T18:31:48.011Z,1.99
2023-01-08T18:34:15.266Z,2.04
2023-01-08T18:36:42.682Z,1.95
2023-01-08T18:39:09.547Z,1.83
2023-01-08T18:41:55.038Z,1.66
2023-01-08T18:44:21.725Z,1.80
2023-01-08T18:46:48.477Z,1.62
2023-01-08T18:49:15.516Z,1.66
2023-01-08T18:51:42.458Z,1.64
2023-01-08T18:54:11.186Z,1.55
2023-01-08T18:56:38.094Z,1.46
2023-01-08T18:59:06.736Z,1.40
2023-01-08T19:01:35.431Z,1.64
2023-01-08T19:04:02.711Z,1.56
2023-01-08T19:06:29.714Z,1.66
2023-01-08T19:08:58.568Z,1.64
2023-01-08T19:11:25.839Z,1.61
2023-01-08T19:13:57.151Z,1.51
2023-01-08T19:16:24.236Z,1.52
2023-01-08T19:18:51.087Z,1.62
2023-01-08T19:21:19.373Z,1.67
2023-01-08T19:23:47.024Z,1.51
2023-01-08T19:26:14.683Z,1.15
2023-01-08T19:28:42.478Z,1.36
2023-01-08T19:31:12.797Z,1.28
2023-01-08T19:33:40.097Z,1.33
2023-01-08T19:36:15.934Z,1.29
2023-01-08T19:38:44.393Z,1.15
2023-01-08T19:41:30.792Z,1.37
2023-01-08T19:43:58.364Z,1.39
2023-01-08T19:46:25.468Z,1.26
2023-01-08T19:48:52.687Z,1.36
2023-01-08T19:51:19.519Z,1.39
2023-01-08T19:53:46.439Z,1.30
2023-01-08T19:56:14.759Z,1.27
2023-01-08T19:58:41.789Z,1.33
2023-01-08T20:01:20.137Z,1.16
2023-01-08T20:03:47.599Z,1.48
2023-01-08T20:06:19.587Z,1.58
2023-01-08T20:08:48.147Z,1.54
2023-01-08T20:11:17.154Z,1.58
2023-01-08T20:13:43.931Z,1.44
2023-01-08T20:16:16.979Z,1.34
2023-01-08T20:18:43.967Z,1.41
2023-01-08T20:21:17.002Z,1.35
2023-01-08T20:23:47.733Z,1.08
2023-01-08T20:26:17.928Z,1.12
2023-01-08T20:28:46.179Z,1.12
2023-01-08T20:31:15.476Z,1.12
2023-01-08T20:33:43.104Z,1.23
2023-01-08T20:36:17.961Z,1.27
2023-01-08T20:38:45.628Z,1.08
2023-01-08T20:41:12.835Z,1.21
2023-01-08T20:43:40.940Z,1.24
2023-01-08T20:46:09.951Z,1.21
2023-01-08T20:48:42.971Z,1.06
2023-01-08T20:51:13.521Z,1.05
2023-01-08T20:53:40.545Z,1.04
2023-01-08T20:56:12.656Z,1.08
2023-01-08T20:58:41.446Z,0.87
2023-01-08T21:01:10.758Z,0.62
2023-01-08T21:03:38.648Z,1.05
2023-01-08T21:06:10.647Z,1.20
2023-01-08T21:08:37.333Z,1.06
2023-01-08T21:11:08.938Z,1.06
2023-01-08T21:13:36.409Z,1.17
2023-01-08T21:16:14.894Z,1.03
2023-01-08T21:18:47.484Z,0.98
2023-01-08T21:21:20.548Z,1.05
2023-01-08T21:23:47.881Z,0.91
2023-01-08T21:26:15.868Z,1.18
2023-01-08T21:28:43.224Z,1.16
2023-01-08T21:31:16.601Z,1.19
2023-01-08T21:33:47.038Z,1.23
2023-01-08T21:36:19.009Z,1.30
2023-01-08T21:38:46.222Z,1.28
2023-01-08T21:41:42.950Z,1.18
2023-01-08T21:44:34.358Z,1.25
2023-01-08T21:47:02.319Z,1.26
2023-01-08T21:49:29.382Z,1.32
2023-01-08T21:52:14.741Z,1.27
2023-01-08T21:54:44.074Z,1.16
2023-01-08T21:57:10.794Z,1.28
2023-01-08T21:59:37.865Z,1.28
2023-01-08T22:02:05.094Z,1.31
2023-01-08T22:04:32.360Z,1.30
2023-01-08T22:06:59.046Z,1.10
2023-01-08T22:09:25.647Z,1.20
2023-01-08T22:11:53.833Z,1.30
2023-01-08T22:14:20.436Z,1.17
2023-01-08T22:16:47.131Z,1.37
2023-01-08T22:19:14.007Z,1.20
2023-01-08T22:21:40.721Z,1.32
2023-01-08T22:24:07.483Z,1.32
2023-01-08T22:26:37.322Z,1.25
2023-01-08T22:29:06.012Z,1.36
2023-01-08T22:31:33.063Z,1.38
2023-01-08T22:34:00.178Z,1.43
2023-01-08T22:36:26.851Z,1.41
2023-01-08T22:38:53.644Z,1.28
2023-01-08T22:41:22.494Z,1.34
2023-01-08T22:43:56.734Z,1.47
2023-01-08T22:46:26.919Z,1.66
2023-01-08T22:48:53.891Z,1.65
2023-01-08T22:51:27.244Z,1.52
2023-01-08T22:53:55.166Z,1.34
2023-01-08T22:56:22.032Z,1.45
2023-01-08T22:58:48.677Z,1.23
2023-01-08T23:01:24.203Z,1.40
2023-01-08T23:03:52.787Z,1.23
2023-01-08T23:06:20.961Z,1.41
2023-01-08T23:08:48.052Z,1.22
2023-01-08T23:11:17.031Z,1.25
2023-01-08T23:13:44.133Z,1.36
2023-01-08T23:16:13.145Z,1.32
2023-01-08T23:18:39.867Z,1.33
2023-01-08T23:21:18.252Z,1.35
2023-01-08T23:23:45.521Z,1.41
2023-01-08T23:26:21.121Z,1.35
2023-01-08T23:28:49.519Z,1.22
2023-01-08T23:31:23.043Z,1.16
2023-01-08T23:33:50.072Z,1.34
2023-01-08T23:36:19.072Z,1.37
2023-01-08T23:38:49.774Z,1.37
2023-01-08T23:41:18.953Z,1.11
2023-01-08T23:43:46.307Z,1.07
2023-01-08T23:46:13.785Z,1.18
2023-01-08T23:48:41.106Z,1.33
2023-01-08T23:51:08.365Z,1.26
2023-01-08T23:53:35.110Z,1.36
2023-01-08T23:56:01.886Z,1.28
2023-01-08T23:58:28.489Z,1.40
